createdAt,value
2022-08-17T00:03:19.467Z,0.40
2022-08-17T00:08:12.909Z,0.50
2022-08-17T00:13:18.582Z,0.50
2022-08-17T00:19:00.979Z,0.50
2022-08-17T00:23:23.469Z,0.65
2022-08-17T00:28:16.283Z,0.57
2022-08-17T00:33:16.401Z,0.50
2022-08-17T00:38:12.467Z,0.50
2022-08-17T00:43:21.117Z,0.50
2022-08-17T00:48:23.814Z,0.50
2022-08-17T00:53:22.434Z,0.50
2022-08-17T00:58:15.115Z,0.50
2022-08-17T01:03:11.919Z,0.60
2022-08-17T01:08:13.217Z,0.40
2022-08-17T01:13:05.195Z,0.50
2022-08-17T01:17:57.120Z,0.50
2022-08-17T01:22:49.182Z,0.40
2022-08-17T01:27:42.346Z,0.40
2022-08-17T01:32:34.142Z,0.50
2022-08-17T01:37:38.507Z,0.40
2022-08-17T01:42:36.073Z,0.40
2022-08-17T01:47:28.065Z,0.40
2022-08-17T01:52:23.918Z,0.22
2022-08-17T01:57:15.832Z,0.30
2022-08-17T02:02:07.760Z,0.30
2022-08-17T02:06:59.643Z,0.30
2022-08-17T02:11:52.600Z,0.30
2022-08-17T02:16:45.885Z,0.20
2022-08-17T02:21:39.686Z,0.20
2022-08-17T02:26:32.226Z,0.20
2022-08-17T02:31:24.029Z,0.15
2022-08-17T02:36:15.791Z,0.20
2022-08-17T02:41:07.762Z,0.20
2022-08-17T02:45:59.426Z,0.20
2022-08-17T02:50:51.095Z,0.20
2022-08-17T02:55:43.529Z,0.17
2022-08-17T03:00:41.163Z,0.10
2022-08-17T03:05:36.224Z,0.10
2022-08-17T03:10:28.203Z,0.10
2022-08-17T03:15:26.262Z,0.20
2022-08-17T03:20:19.392Z,0.10
2022-08-17T03:25:15.944Z,0.20
2022-08-17T03:30:13.645Z,0.20
2022-08-17T03:35:08.323Z,0.20
2022-08-17T03:40:00.324Z,0.20
2022-08-17T03:44:57.772Z,0.20
2022-08-17T03:50:07.834Z,0.20
2022-08-17T03:55:20.682Z,0.35
2022-08-17T04:00:34.887Z,0.30
2022-08-17T04:05:31.334Z,0.40
2022-08-17T04:10:26.783Z,0.40
2022-08-17T04:15:19.009Z,0.50
2022-08-17T04:20:12.747Z,0.40
2022-08-17T04:25:16.576Z,0.60
2022-08-17T04:30:08.989Z,0.77
2022-08-17T04:35:00.886Z,0.90
2022-08-17T04:40:12.711Z,0.95
2022-08-17T04:45:05.019Z,0.70
2022-08-17T04:49:56.706Z,0.80
2022-08-17T04:54:48.384Z,0.60
2022-08-17T04:59:40.128Z,0.70
2022-08-17T05:04:34.803Z,0.60
2022-08-17T05:09:26.978Z,0.70
2022-08-17T05:14:18.655Z,0.60
2022-08-17T05:19:10.297Z,0.60
2022-08-17T05:24:16.747Z,0.60
2022-08-17T05:29:15.605Z,0.73
2022-08-17T05:34:07.387Z,0.50
2022-08-17T05:38:59.009Z,0.50
2022-08-17T05:43:56.084Z,0.50
2022-08-17T05:48:57.732Z,0.50
2022-08-17T05:54:25.357Z,0.40
2022-08-17T06:00:03.214Z,0.40
2022-08-17T06:05:06.560Z,0.60
2022-08-17T06:10:10.977Z,0.43
2022-08-17T06:15:19.576Z,0.45
2022-08-17T06:20:14.737Z,0.50
2022-08-17T06:25:13.510Z,0.50
2022-08-17T06:30:10.710Z,0.40
2022-08-17T06:35:03.412Z,0.50
2022-08-17T06:40:21.838Z,0.40
2022-08-17T06:50:37.769Z,0.40
2022-08-17T06:55:38.302Z,0.20
2022-08-17T07:00:37.868Z,0.30
2022-08-17T07:05:40.138Z,0.30
2022-08-17T07:10:44.873Z,0.40
2022-08-17T07:15:43.085Z,0.40
2022-08-17T07:20:35.986Z,0.50
2022-08-17T07:25:30.763Z,0.60
2022-08-17T07:30:28.443Z,0.50
2022-08-17T07:35:37.679Z,0.50
2022-08-17T07:40:39.958Z,0.57
2022-08-17T07:45:51.569Z,0.60
2022-08-17T07:50:43.474Z,0.40
2022-08-17T07:55:41.880Z,0.50
2022-08-17T08:00:33.812Z,0.60
2022-08-17T08:05:49.140Z,0.63
2022-08-17T08:10:45.586Z,0.63
2022-08-17T08:15:45.134Z,0.60
2022-08-17T08:20:54.035Z,0.60
2022-08-17T08:26:01.933Z,0.70
2022-08-17T08:31:03.530Z,0.70
2022-08-17T08:36:13.428Z,0.90
2022-08-17T08:41:43.303Z,0.82
2022-08-17T08:46:50.204Z,0.60
2022-08-17T08:51:46.482Z,0.80
2022-08-17T08:57:19.214Z,0.70
2022-08-17T09:02:07.151Z,0.73
2022-08-17T09:07:04.766Z,0.75
2022-08-17T09:12:14.054Z,0.77
2022-08-17T09:17:16.418Z,0.70
2022-08-17T09:22:22.402Z,0.65
2022-08-17T09:27:19.713Z,1.13
2022-08-17T09:32:52.091Z,0.50
2022-08-17T09:38:07.647Z,0.60
2022-08-17T09:42:59.467Z,0.60
2022-08-17T09:47:57.506Z,0.68
2022-08-17T09:52:53.986Z,0.50
2022-08-17T09:57:51.735Z,0.70
2022-08-17T10:02:58.827Z,0.60
2022-08-17T10:08:11.067Z,0.50
2022-08-17T10:13:19.245Z,0.60
2022-08-17T10:18:12.372Z,0.50
2022-08-17T10:23:36.184Z,0.50
2022-08-17T10:28:36.863Z,0.55
2022-08-17T10:33:51.006Z,0.80
2022-08-17T10:39:04.514Z,0.50
2022-08-17T10:44:40.898Z,0.50
2022-08-17T10:49:30.377Z,0.88
2022-08-17T10:54:24.732Z,0.50
2022-08-17T10:59:51.271Z,0.40
2022-08-17T11:04:47.889Z,0.70
2022-08-17T11:10:08.487Z,0.40
2022-08-17T11:15:31.994Z,0.50
2022-08-17T11:20:51.016Z,0.55
2022-08-17T11:25:51.121Z,0.40
2022-08-17T11:30:48.977Z,0.43
2022-08-17T11:35:51.293Z,0.60
2022-08-17T11:40:44.549Z,0.55
2022-08-17T11:45:57.335Z,0.45
2022-08-17T11:51:17.511Z,0.50
2022-08-17T11:56:48.017Z,0.60
2022-08-17T12:01:58.137Z,0.70
2022-08-17T12:06:57.527Z,0.50
2022-08-17T12:12:12.781Z,0.50
2022-08-17T12:17:09.314Z,0.60
2022-08-17T12:22:22.284Z,0.50
2022-08-17T12:27:46.186Z,0.70
2022-08-17T12:32:39.483Z,0.65
2022-08-17T12:37:33.828Z,0.60
2022-08-17T12:42:29.936Z,0.50
2022-08-17T12:47:23.155Z,0.70
2022-08-17T12:52:23.712Z,0.68
2022-08-17T12:57:37.278Z,1.40
2022-08-17T13:02:37.786Z,0.80
2022-08-17T13:07:44.690Z,0.70
2022-08-17T13:12:36.622Z,1.10
2022-08-17T13:17:32.504Z,0.75
2022-08-17T13:22:27.214Z,0.80
2022-08-17T13:27:21.722Z,1.30
2022-08-17T13:32:33.484Z,0.80
2022-08-17T13:37:30.234Z,0.90
2022-08-17T13:42:52.407Z,0.85
2022-08-17T13:47:44.928Z,0.90
2022-08-17T13:52:43.121Z,1.10
2022-08-17T13:57:36.250Z,1.17
2022-08-17T14:02:28.730Z,0.80
2022-08-17T14:07:27.370Z,1.00
2022-08-17T14:12:22.557Z,1.20
2022-08-17T14:17:14.184Z,1.33
2022-08-17T14:22:09.098Z,1.20
2022-08-17T14:27:03.432Z,0.80
2022-08-17T14:31:56.344Z,1.08
2022-08-17T14:36:48.841Z,1.00
2022-08-17T14:41:41.972Z,0.95
2022-08-17T14:46:33.675Z,1.23
2022-08-17T14:51:28.620Z,1.52
2022-08-17T14:56:20.635Z,1.00
2022-08-17T15:01:14.042Z,1.40
2022-08-17T15:06:05.852Z,1.15
2022-08-17T15:10:57.556Z,1.35
2022-08-17T15:15:49.766Z,1.02
2022-08-17T15:20:42.897Z,1.20
2022-08-17T15:25:34.565Z,1.23
2022-08-17T15:30:26.609Z,1.50
2022-08-17T15:35:18.836Z,1.23
2022-08-17T15:40:13.940Z,1.17
2022-08-17T15:45:08.920Z,1.85
2022-08-17T15:50:00.686Z,1.40
2022-08-17T15:54:56.999Z,1.33
2022-08-17T15:59:52.102Z,1.33
2022-08-17T16:04:50.073Z,1.00
2022-08-17T16:09:44.466Z,1.33
2022-08-17T16:14:37.043Z,1.17
2022-08-17T16:19:29.288Z,0.80
2022-08-17T16:24:21.057Z,0.85
2022-08-17T16:29:12.783Z,0.85
2022-08-17T16:34:17.945Z,2.08
2022-08-17T16:39:10.353Z,1.13
2022-08-17T16:44:02.759Z,0.88
2022-08-17T16:48:54.365Z,0.90
2022-08-17T16:53:45.962Z,0.93
2022-08-17T16:58:50.198Z,0.70
2022-08-17T17:03:44.083Z,1.13
2022-08-17T17:08:50.736Z,0.82
2022-08-17T17:14:02.182Z,0.85
2022-08-17T17:19:18.009Z,0.90
2022-08-17T17:25:01.302Z,1.23
2022-08-17T17:30:07.586Z,0.65
2022-08-17T17:35:07.117Z,0.70
2022-08-17T17:40:05.337Z,0.73
2022-08-17T17:45:18.673Z,0.60
2022-08-17T17:50:10.854Z,0.70
2022-08-17T17:55:23.096Z,0.50
2022-08-17T18:00:39.201Z,0.70
2022-08-17T18:05:37.297Z,0.50
2022-08-17T18:10:44.450Z,0.60
2022-08-17T18:15:43.416Z,0.98
2022-08-17T18:20:43.263Z,0.50
2022-08-17T18:25:52.011Z,0.52
2022-08-17T18:30:43.701Z,0.43
2022-08-17T18:35:35.677Z,0.40
2022-08-17T18:40:31.882Z,0.40
2022-08-17T18:45:38.642Z,0.40
2022-08-17T18:50:41.472Z,0.50
2022-08-17T18:55:34.171Z,0.50
2022-08-17T19:00:47.486Z,0.40
2022-08-17T19:05:44.482Z,0.40
2022-08-17T19:10:46.228Z,0.50
2022-08-17T19:16:11.594Z,0.70
2022-08-17T19:21:19.946Z,0.60
2022-08-17T19:26:53.776Z,0.80
2022-08-17T19:31:40.758Z,0.50
2022-08-17T19:36:50.671Z,0.70
2022-08-17T19:42:00.734Z,0.40
2022-08-17T19:47:30.483Z,0.63
2022-08-17T19:53:02.092Z,0.40
2022-08-17T19:58:17.780Z,0.70
2022-08-17T20:03:35.402Z,0.60
2022-08-17T20:08:34.513Z,0.50
2022-08-17T20:13:49.869Z,0.40
2022-08-17T20:19:07.917Z,0.40
2022-08-17T20:24:25.841Z,0.52
2022-08-17T20:29:17.424Z,0.43
2022-08-17T20:34:31.009Z,0.50
2022-08-17T20:39:49.194Z,0.40
2022-08-17T20:44:42.842Z,0.38
2022-08-17T20:49:44.770Z,0.50
2022-08-17T20:54:46.144Z,0.50
2022-08-17T20:59:43.558Z,0.50
2022-08-17T21:04:42.902Z,0.50
2022-08-17T21:09:34.622Z,0.50
2022-08-17T21:15:08.049Z,0.60
2022-08-17T21:20:22.776Z,0.40
2022-08-17T21:25:32.606Z,0.80
2022-08-17T21:30:30.338Z,0.50
2022-08-17T21:35:28.933Z,0.88
2022-08-17T21:40:29.838Z,0.60
2022-08-17T21:45:41.759Z,0.70
2022-08-17T21:50:35.660Z,0.52
2022-08-17T21:55:29.961Z,0.60
2022-08-17T22:00:30.857Z,0.55
2022-08-17T22:05:51.478Z,0.80
2022-08-17T22:10:48.452Z,0.90
2022-08-17T22:15:43.772Z,0.70
2022-08-17T22:20:35.529Z,0.50
2022-08-17T22:25:31.013Z,0.65
2022-08-17T22:30:34.758Z,0.70
2022-08-17T22:35:29.378Z,1.00
2022-08-17T22:40:33.594Z,1.10
2022-08-17T22:45:29.790Z,0.80
2022-08-17T22:50:25.403Z,0.77
2022-08-17T22:55:36.542Z,0.88
2022-08-17T23:00:41.701Z,0.80
2022-08-17T23:05:34.178Z,0.73
2022-08-17T23:10:28.350Z,0.80
2022-08-17T23:15:20.125Z,0.60
2022-08-17T23:20:14.048Z,0.63
2022-08-17T23:25:06.271Z,0.68
2022-08-17T23:29:58.466Z,0.80
2022-08-17T23:34:50.927Z,0.90
2022-08-17T23:39:45.065Z,0.90
2022-08-17T23:44:39.227Z,0.88
2022-08-17T23:49:32.224Z,0.90
2022-08-17T23:54:34.989Z,0.80
2022-08-17T23:59:27.638Z,1.00
